createdAt,value
2022-08-17T00:02:21.778Z,10.20
2022-08-17T00:04:53.788Z,10.73
2022-08-17T00:07:20.258Z,11.13
2022-08-17T00:09:46.759Z,11.15
2022-08-17T00:12:42.807Z,10.82
2022-08-17T00:14:59.764Z,11.38
2022-08-17T00:17:26.225Z,11.63
2022-08-17T00:19:52.704Z,10.32
2022-08-17T00:22:35.265Z,9.95
2022-08-17T00:25:07.155Z,10.07
2022-08-17T00:27:33.688Z,9.25
2022-08-17T00:30:00.352Z,9.75
2022-08-17T00:33:14.003Z,12.18
2022-08-17T00:35:19.218Z,10.23
2022-08-17T00:37:45.713Z,10.40
2022-08-17T00:40:15.065Z,11.20
2022-08-17T00:42:43.494Z,11.40
2022-08-17T00:45:13.558Z,10.98
2022-08-17T00:47:40.597Z,11.43
2022-08-17T00:50:12.868Z,11.10
2022-08-17T00:52:54.841Z,11.50
2022-08-17T00:55:23.849Z,11.43
2022-08-17T00:57:56.369Z,11.02
2022-08-17T01:00:29.937Z,10.35
2022-08-17T01:03:03.227Z,10.98
2022-08-17T01:05:32.255Z,11.30
2022-08-17T01:08:02.568Z,11.15
2022-08-17T01:11:00.186Z,10.88
2022-08-17T01:13:35.487Z,10.05
2022-08-17T01:16:08.465Z,11.05
2022-08-17T01:18:35.346Z,10.45
2022-08-17T01:21:07.895Z,11.05
2022-08-17T01:23:34.479Z,11.25
2022-08-17T01:26:03.085Z,11.13
2022-08-17T01:28:52.266Z,10.50
2022-08-17T01:31:19.499Z,11.35
2022-08-17T01:33:46.015Z,11.25
2022-08-17T01:36:12.504Z,11.45
2022-08-17T01:38:39.586Z,10.57
2022-08-17T01:41:12.247Z,11.73
2022-08-17T01:43:47.726Z,11.45
2022-08-17T01:46:21.054Z,11.52
2022-08-17T01:48:47.763Z,11.45
2022-08-17T01:51:15.953Z,10.65
2022-08-17T01:53:48.546Z,11.32
2022-08-17T01:56:18.338Z,11.35
2022-08-17T01:58:45.643Z,11.13
2022-08-17T02:01:14.737Z,11.63
2022-08-17T02:03:42.014Z,11.02
2022-08-17T02:06:28.077Z,10.93
2022-08-17T02:09:02.599Z,11.43
2022-08-17T02:14:03.134Z,12.27
2022-08-17T02:16:37.844Z,12.18
2022-08-17T02:19:07.735Z,11.73
2022-08-17T02:21:35.826Z,11.90
2022-08-17T02:24:03.286Z,12.40
2022-08-17T02:26:29.990Z,12.57
2022-08-17T02:28:56.484Z,12.30
2022-08-17T02:31:23.010Z,12.25
2022-08-17T02:34:00.337Z,11.60
2022-08-17T02:36:34.885Z,12.18
2022-08-17T02:39:04.797Z,11.98
2022-08-17T02:41:31.823Z,11.90
2022-08-17T02:43:58.716Z,12.60
2022-08-17T02:46:25.635Z,13.13
2022-08-17T02:48:52.154Z,12.45
2022-08-17T02:51:18.618Z,14.00
2022-08-17T02:53:45.121Z,14.02
2022-08-17T02:56:11.619Z,13.75
2022-08-17T02:58:38.120Z,13.05
2022-08-17T03:01:08.217Z,13.13
2022-08-17T03:03:36.613Z,13.52
2022-08-17T03:06:05.010Z,13.10
2022-08-17T03:08:31.715Z,12.57
2022-08-17T03:10:58.248Z,13.38
2022-08-17T03:13:24.742Z,12.45
2022-08-17T03:15:51.437Z,13.20
2022-08-17T03:18:25.627Z,13.68
2022-08-17T03:20:58.610Z,13.93
2022-08-17T03:23:27.388Z,12.95
2022-08-17T03:25:54.420Z,12.95
2022-08-17T03:28:21.892Z,13.98
2022-08-17T03:30:49.028Z,13.63
2022-08-17T03:33:16.210Z,14.23
2022-08-17T03:35:43.306Z,13.48
2022-08-17T03:38:11.603Z,13.07
2022-08-17T03:40:59.010Z,13.45
2022-08-17T03:43:27.056Z,13.85
2022-08-17T03:46:27.571Z,14.07
2022-08-17T03:49:15.331Z,14.13
2022-08-17T03:52:00.258Z,15.18
2022-08-17T03:54:45.215Z,15.70
2022-08-17T03:57:12.421Z,15.35
2022-08-17T03:59:39.732Z,15.48
2022-08-17T04:02:16.394Z,15.48
2022-08-17T04:04:42.870Z,16.02
2022-08-17T04:07:09.443Z,15.23
2022-08-17T04:09:36.584Z,15.95
2022-08-17T04:12:04.878Z,15.98
2022-08-17T04:14:36.706Z,14.82
2022-08-17T04:17:17.968Z,14.73
2022-08-17T04:19:44.966Z,14.13
2022-08-17T04:22:11.456Z,15.25
2022-08-17T04:24:57.968Z,16.48
2022-08-17T04:27:25.373Z,17.83
2022-08-17T04:29:55.529Z,17.88
2022-08-17T04:33:00.689Z,16.73
2022-08-17T04:35:09.716Z,17.05
2022-08-17T04:37:36.301Z,17.10
2022-08-17T04:40:22.231Z,16.80
2022-08-17T04:43:08.713Z,16.05
2022-08-17T04:45:55.434Z,16.63
2022-08-17T04:48:35.783Z,16.13
2022-08-17T04:51:10.639Z,15.00
2022-08-17T04:53:38.949Z,16.52
2022-08-17T04:56:06.225Z,16.60
2022-08-17T04:58:32.759Z,16.42
2022-08-17T05:00:59.474Z,16.00
2022-08-17T05:03:26.306Z,15.98
2022-08-17T05:05:53.702Z,16.73
2022-08-17T05:08:21.505Z,16.48
2022-08-17T05:10:48.679Z,16.80
2022-08-17T05:13:18.467Z,17.80
2022-08-17T05:15:47.877Z,17.52
2022-08-17T05:18:15.259Z,18.10
2022-08-17T05:20:42.360Z,16.98
2022-08-17T05:23:12.420Z,16.58
2022-08-17T05:25:47.428Z,18.23
2022-08-17T05:28:16.025Z,16.52
2022-08-17T05:30:43.204Z,16.50
2022-08-17T05:33:17.240Z,15.75
2022-08-17T05:35:47.146Z,15.52
2022-08-17T05:38:15.043Z,15.82
2022-08-17T05:40:42.546Z,17.65
2022-08-17T05:43:11.946Z,18.02
2022-08-17T05:45:55.848Z,18.08
2022-08-17T05:48:39.621Z,18.15
2022-08-17T05:51:06.882Z,18.55
2022-08-17T05:53:54.952Z,18.27
2022-08-17T05:56:47.460Z,17.58
2022-08-17T05:59:40.370Z,17.80
2022-08-17T06:02:19.207Z,17.70
2022-08-17T06:05:22.535Z,17.10
2022-08-17T06:08:26.856Z,17.95
2022-08-17T06:11:19.995Z,16.40
2022-08-17T06:14:04.327Z,16.20
2022-08-17T06:16:38.708Z,16.65
2022-08-17T06:19:40.092Z,16.50
2022-08-17T06:22:08.658Z,14.57
2022-08-17T06:24:41.963Z,14.48
2022-08-17T06:27:36.543Z,13.63
2022-08-17T06:30:12.763Z,14.20
2022-08-17T06:32:43.705Z,12.73
2022-08-17T06:35:27.719Z,11.88
2022-08-17T06:38:38.074Z,12.02
2022-08-17T06:41:13.085Z,11.50
2022-08-17T06:44:01.228Z,12.30
2022-08-17T06:46:40.301Z,11.48
2022-08-17T06:49:26.217Z,11.10
2022-08-17T06:52:00.430Z,12.05
2022-08-17T06:54:37.720Z,12.37
2022-08-17T06:57:09.988Z,10.55
2022-08-17T06:59:55.611Z,10.63
2022-08-17T07:02:52.742Z,10.63
2022-08-17T07:05:26.202Z,9.52
2022-08-17T07:08:09.202Z,10.13
2022-08-17T07:10:53.034Z,9.50
2022-08-17T07:13:25.443Z,9.35
2022-08-17T07:15:57.288Z,10.70
2022-08-17T07:18:26.914Z,10.60
2022-08-17T07:21:00.117Z,9.50
2022-08-17T07:23:39.411Z,9.18
2022-08-17T07:26:08.163Z,9.18
2022-08-17T07:28:36.376Z,7.68
2022-08-17T07:31:04.676Z,8.73
2022-08-17T07:33:34.021Z,8.05
2022-08-17T07:36:01.567Z,8.85
2022-08-17T07:38:33.250Z,9.15
2022-08-17T07:41:07.201Z,8.20
2022-08-17T07:43:36.722Z,9.95
2022-08-17T07:46:21.656Z,10.70
2022-08-17T07:48:52.453Z,9.35
2022-08-17T07:51:21.740Z,9.48
2022-08-17T07:53:48.490Z,11.32
2022-08-17T07:56:38.981Z,9.40
2022-08-17T07:59:16.340Z,10.10
2022-08-17T08:01:47.237Z,8.50
2022-08-17T08:07:20.497Z,8.15
2022-08-17T08:10:02.491Z,8.13
2022-08-17T08:12:40.558Z,6.55
2022-08-17T08:15:19.300Z,7.43
2022-08-17T08:17:55.856Z,7.75
2022-08-17T08:20:37.677Z,6.72
2022-08-17T08:23:37.239Z,6.95
2022-08-17T08:26:26.355Z,5.82
2022-08-17T08:29:12.500Z,6.00
2022-08-17T08:31:51.391Z,6.38
2022-08-17T08:35:02.454Z,6.72
2022-08-17T08:37:48.448Z,5.70
2022-08-17T08:40:33.610Z,5.25
2022-08-17T08:43:03.903Z,6.45
2022-08-17T08:46:20.649Z,6.70
2022-08-17T08:49:11.997Z,6.20
2022-08-17T08:51:58.752Z,7.22
2022-08-17T08:54:34.483Z,6.95
2022-08-17T08:57:26.790Z,4.97
2022-08-17T09:00:20.078Z,6.45
2022-08-17T09:02:49.276Z,8.27
2022-08-17T09:05:48.414Z,7.88
2022-08-17T09:08:52.835Z,8.30
2022-08-17T09:11:28.452Z,7.85
2022-08-17T09:13:57.951Z,7.68
2022-08-17T09:16:36.774Z,7.38
2022-08-17T09:19:30.296Z,8.02
2022-08-17T09:22:11.019Z,7.30
2022-08-17T09:24:40.188Z,8.27
2022-08-17T09:27:14.162Z,7.03
2022-08-17T09:29:51.535Z,7.60
2022-08-17T09:32:42.605Z,7.00
2022-08-17T09:35:13.812Z,7.20
2022-08-17T09:37:43.221Z,6.93
2022-08-17T09:40:17.621Z,8.00
2022-08-17T09:42:48.857Z,7.93
2022-08-17T09:45:18.377Z,7.68
2022-08-17T09:47:54.336Z,8.52
2022-08-17T09:51:03.686Z,7.82
2022-08-17T09:53:15.138Z,8.25
2022-08-17T09:55:58.487Z,8.07
2022-08-17T09:58:38.960Z,8.10
2022-08-17T10:01:21.702Z,8.40
2022-08-17T10:04:04.868Z,8.40
2022-08-17T10:06:47.684Z,7.35
2022-08-17T10:09:22.404Z,7.18
2022-08-17T10:12:20.059Z,9.02
2022-08-17T10:14:53.388Z,7.90
2022-08-17T10:17:39.813Z,7.97
2022-08-17T10:20:33.207Z,8.70
2022-08-17T10:23:33.365Z,8.70
2022-08-17T10:26:16.785Z,8.40
2022-08-17T10:28:59.300Z,8.35
2022-08-17T10:31:42.374Z,9.90
2022-08-17T10:34:27.852Z,9.45
2022-08-17T10:39:32.952Z,8.35
2022-08-17T10:42:15.351Z,9.77
2022-08-17T10:45:25.904Z,8.07
2022-08-17T10:48:04.833Z,8.57
2022-08-17T10:50:59.924Z,9.32
2022-08-17T10:53:32.605Z,10.48
2022-08-17T10:56:14.459Z,11.55
2022-08-17T10:59:00.943Z,9.32
2022-08-17T11:01:37.945Z,7.30
2022-08-17T11:04:21.319Z,10.93
2022-08-17T11:07:25.704Z,11.40
2022-08-17T11:10:18.141Z,10.18
2022-08-17T11:13:01.262Z,11.88
2022-08-17T11:16:04.727Z,12.85
2022-08-17T11:18:52.568Z,10.40
2022-08-17T11:21:21.853Z,10.80
2022-08-17T11:24:12.662Z,7.38
2022-08-17T11:26:46.214Z,12.70
2022-08-17T11:29:26.591Z,14.95
2022-08-17T11:32:07.778Z,15.10
2022-08-17T11:34:39.583Z,6.70
2022-08-17T11:37:06.236Z,15.85
2022-08-17T11:39:44.952Z,18.98
2022-08-17T11:42:37.491Z,17.73
2022-08-17T11:45:32.319Z,9.23
2022-08-17T11:48:33.536Z,20.15
2022-08-17T11:51:35.212Z,18.02
2022-08-17T11:54:32.778Z,20.88
2022-08-17T11:56:54.403Z,20.95
2022-08-17T11:59:32.756Z,10.07
2022-08-17T12:02:34.678Z,20.70
2022-08-17T12:05:04.131Z,23.38
2022-08-17T12:07:42.460Z,19.42
2022-08-17T12:10:12.162Z,20.10
2022-08-17T12:12:44.084Z,22.08
2022-08-17T12:15:31.043Z,23.52
2022-08-17T12:17:59.042Z,23.10
2022-08-17T12:20:38.673Z,26.02
2022-08-17T12:23:33.851Z,22.65
2022-08-17T12:26:11.576Z,27.50
2022-08-17T12:28:44.020Z,26.55
2022-08-17T12:31:54.207Z,29.02
2022-08-17T12:34:26.565Z,28.60
2022-08-17T12:37:00.846Z,25.73
2022-08-17T12:39:29.201Z,29.20
2022-08-17T12:42:02.769Z,30.05
2022-08-17T12:44:36.002Z,28.77
2022-08-17T12:47:21.853Z,31.55
2022-08-17T12:49:54.458Z,30.40
2022-08-17T12:52:23.208Z,30.48
2022-08-17T12:54:59.602Z,30.42
2022-08-17T12:57:37.830Z,18.00
2022-08-17T13:00:07.515Z,31.63
2022-08-17T13:02:42.831Z,31.02
2022-08-17T13:05:20.222Z,31.70
2022-08-17T13:07:47.181Z,29.70
2022-08-17T13:10:18.343Z,30.38
2022-08-17T13:12:45.261Z,27.65
2022-08-17T13:15:25.079Z,32.13
2022-08-17T13:18:00.774Z,34.40
2022-08-17T13:20:27.562Z,33.08
2022-08-17T13:22:59.571Z,26.20
2022-08-17T13:25:27.862Z,32.92
2022-08-17T13:27:55.937Z,34.63
2022-08-17T13:30:28.245Z,22.70
2022-08-17T13:32:56.646Z,34.45
2022-08-17T13:35:40.568Z,35.78
2022-08-17T13:38:09.706Z,33.03
2022-08-17T13:40:46.127Z,36.88
2022-08-17T13:43:32.690Z,32.75
2022-08-17T13:46:09.732Z,37.70
2022-08-17T13:48:36.568Z,36.55
2022-08-17T13:51:13.613Z,37.80
2022-08-17T13:53:40.238Z,33.85
2022-08-17T13:56:37.249Z,35.00
2022-08-17T13:59:09.544Z,33.28
2022-08-17T14:01:43.059Z,33.13
2022-08-17T14:04:14.031Z,32.75
2022-08-17T14:07:08.497Z,34.00
2022-08-17T14:09:38.361Z,35.55
2022-08-17T14:12:10.552Z,24.92
2022-08-17T14:14:37.953Z,36.00
2022-08-17T14:17:05.083Z,35.53
2022-08-17T14:19:34.607Z,35.13
2022-08-17T14:22:01.866Z,35.50
2022-08-17T14:24:35.091Z,33.83
2022-08-17T14:27:03.583Z,37.85
2022-08-17T14:29:31.796Z,35.05
2022-08-17T14:32:04.262Z,34.97
2022-08-17T14:34:30.785Z,35.63
2022-08-17T14:36:57.308Z,30.80
2022-08-17T14:39:23.825Z,36.33
2022-08-17T14:41:50.577Z,37.63
2022-08-17T14:44:17.281Z,30.92
2022-08-17T14:46:45.083Z,37.28
2022-08-17T14:49:12.876Z,37.70
2022-08-17T14:51:43.860Z,40.70
2022-08-17T14:54:11.646Z,41.80
2022-08-17T14:57:02.891Z,39.65
2022-08-17T14:59:44.854Z,39.58
2022-08-17T15:02:12.055Z,36.00
2022-08-17T15:04:43.416Z,40.92
2022-08-17T15:07:11.951Z,43.47
2022-08-17T15:09:39.007Z,41.58
2022-08-17T15:12:06.661Z,41.65
2022-08-17T15:14:35.364Z,41.85
2022-08-17T15:17:03.405Z,40.90
2022-08-17T15:19:29.924Z,40.70
2022-08-17T15:21:56.399Z,43.03
2022-08-17T15:24:22.899Z,37.80
2022-08-17T15:26:49.832Z,43.05
2022-08-17T15:29:16.328Z,33.30
2022-08-17T15:31:43.416Z,41.55
2022-08-17T15:34:09.994Z,38.75
2022-08-17T15:36:37.034Z,36.20
2022-08-17T15:39:05.374Z,43.45
2022-08-17T15:41:31.941Z,42.47
2022-08-17T15:43:58.494Z,42.95
2022-08-17T15:46:26.255Z,41.10
2022-08-17T15:48:58.179Z,36.03
2022-08-17T15:51:27.001Z,34.70
2022-08-17T15:53:55.058Z,26.77
2022-08-17T15:56:22.560Z,35.80
2022-08-17T15:58:49.973Z,31.38
2022-08-17T16:03:01.048Z,30.98
2022-08-17T16:04:14.894Z,38.53
2022-08-17T16:06:52.420Z,34.42
2022-08-17T16:09:18.947Z,37.70
2022-08-17T16:11:45.999Z,33.00
2022-08-17T16:14:20.132Z,37.78
2022-08-17T16:16:46.611Z,33.83
2022-08-17T16:19:14.295Z,36.35
2022-08-17T16:21:42.391Z,41.80
2022-08-17T16:24:12.763Z,39.05
2022-08-17T16:26:40.045Z,29.10
2022-08-17T16:29:07.727Z,36.30
2022-08-17T16:31:36.074Z,39.33
2022-08-17T16:34:16.327Z,40.95
2022-08-17T16:36:54.937Z,39.90
2022-08-17T16:39:22.709Z,39.75
2022-08-17T16:41:49.536Z,35.50
2022-08-17T16:44:18.563Z,35.80
2022-08-17T16:46:46.710Z,33.00
2022-08-17T16:49:35.384Z,36.35
2022-08-17T16:52:03.299Z,35.67
2022-08-17T16:54:30.245Z,31.25
2022-08-17T16:56:56.821Z,34.00
2022-08-17T16:59:30.187Z,33.70
2022-08-17T17:04:50.025Z,37.70
2022-08-17T17:07:41.161Z,37.42
2022-08-17T17:10:13.402Z,36.28
2022-08-17T17:13:03.943Z,32.63
2022-08-17T17:16:01.181Z,33.13
2022-08-17T17:18:43.424Z,33.47
2022-08-17T17:21:14.129Z,34.85
2022-08-17T17:24:01.100Z,34.63
2022-08-17T17:26:34.248Z,37.08
2022-08-17T17:29:09.786Z,35.63
2022-08-17T17:31:45.161Z,35.55
2022-08-17T17:34:15.831Z,34.50
2022-08-17T17:36:56.443Z,31.55
2022-08-17T17:39:46.317Z,38.67
2022-08-17T17:42:20.324Z,38.40
2022-08-17T17:44:51.978Z,40.90
2022-08-17T17:47:18.684Z,37.25
2022-08-17T17:49:48.658Z,40.40
2022-08-17T17:52:38.310Z,40.50
2022-08-17T17:55:39.315Z,39.15
2022-08-17T17:58:36.633Z,40.22
2022-08-17T18:01:09.205Z,36.92
2022-08-17T18:04:12.413Z,37.63
2022-08-17T18:07:15.287Z,35.10
2022-08-17T18:10:01.143Z,35.88
2022-08-17T18:12:37.291Z,36.58
2022-08-17T18:15:29.205Z,36.15
2022-08-17T18:18:15.970Z,37.22
2022-08-17T18:20:53.703Z,37.30
2022-08-17T18:23:27.568Z,36.47
2022-08-17T18:25:56.147Z,34.72
2022-08-17T18:28:33.077Z,33.40
2022-08-17T18:31:21.795Z,36.60
2022-08-17T18:33:52.517Z,35.08
2022-08-17T18:36:31.408Z,35.40
2022-08-17T18:39:26.283Z,34.17
2022-08-17T18:41:55.705Z,34.92
2022-08-17T18:44:31.405Z,36.50
2022-08-17T18:47:19.467Z,35.08
2022-08-17T18:49:56.366Z,36.55
2022-08-17T18:52:32.059Z,34.95
2022-08-17T18:55:01.671Z,32.53
2022-08-17T18:57:41.994Z,35.08
2022-08-17T19:00:16.875Z,35.53
2022-08-17T19:02:54.109Z,41.30
2022-08-17T19:05:26.564Z,35.30
2022-08-17T19:07:53.617Z,35.55
2022-08-17T19:10:31.631Z,36.45
2022-08-17T19:13:12.375Z,35.42
2022-08-17T19:15:44.996Z,36.75
2022-08-17T19:18:56.164Z,35.75
2022-08-17T19:21:30.439Z,34.53
2022-08-17T19:24:26.413Z,39.10
2022-08-17T19:27:00.309Z,38.22
2022-08-17T19:29:37.331Z,38.88
2022-08-17T19:32:07.588Z,39.20
2022-08-17T19:34:36.510Z,42.00
2022-08-17T19:37:12.217Z,41.17
2022-08-17T19:39:47.966Z,42.00
2022-08-17T19:42:22.062Z,45.80
2022-08-17T19:44:59.469Z,42.13
2022-08-17T19:47:55.359Z,43.33
2022-08-17T19:50:53.136Z,31.88
2022-08-17T19:54:04.936Z,31.02
2022-08-17T19:56:58.720Z,30.88
2022-08-17T19:59:48.925Z,32.05
2022-08-17T20:02:20.627Z,32.85
2022-08-17T20:04:50.500Z,33.55
2022-08-17T20:07:44.378Z,33.67
2022-08-17T20:10:18.801Z,40.45
2022-08-17T20:12:47.602Z,34.75
2022-08-17T20:15:27.171Z,34.03
2022-08-17T20:17:57.261Z,34.67
2022-08-17T20:21:20.453Z,36.72
2022-08-17T20:23:50.291Z,40.03
2022-08-17T20:26:28.173Z,41.75
2022-08-17T20:29:31.877Z,39.85
2022-08-17T20:32:15.037Z,43.95
2022-08-17T20:37:17.096Z,45.88
2022-08-17T20:40:09.456Z,46.05
2022-08-17T20:42:36.653Z,47.60
2022-08-17T20:45:26.267Z,49.78
2022-08-17T20:51:09.515Z,48.42
2022-08-17T20:53:48.315Z,49.78
2022-08-17T20:56:49.215Z,48.90
2022-08-17T20:59:25.803Z,47.85
2022-08-17T21:02:17.630Z,49.72
2022-08-17T21:04:52.843Z,50.05
2022-08-17T21:07:41.043Z,47.83
2022-08-17T21:10:10.292Z,48.17
2022-08-17T21:13:00.152Z,41.88
2022-08-17T21:15:41.650Z,41.28
2022-08-17T21:18:30.180Z,39.92
2022-08-17T21:21:25.886Z,37.97
2022-08-17T21:24:30.151Z,37.65
2022-08-17T21:27:02.635Z,38.30
2022-08-17T21:29:34.111Z,41.92
2022-08-17T21:32:06.807Z,43.22
2022-08-17T21:34:43.905Z,40.75
2022-08-17T21:37:23.406Z,42.03
2022-08-17T21:40:01.271Z,40.85
2022-08-17T21:42:32.067Z,39.67
2022-08-17T21:45:35.515Z,40.35
2022-08-17T21:48:24.575Z,41.88
2022-08-17T21:51:01.711Z,42.70
2022-08-17T21:53:44.526Z,43.72
2022-08-17T21:56:12.974Z,42.22
2022-08-17T21:58:48.292Z,43.75
2022-08-17T22:01:37.425Z,43.08
2022-08-17T22:04:05.951Z,42.97
2022-08-17T22:06:56.649Z,42.13
2022-08-17T22:09:23.932Z,44.45
2022-08-17T22:11:55.192Z,41.40
2022-08-17T22:14:52.576Z,43.13
2022-08-17T22:17:41.176Z,44.03
2022-08-17T22:20:16.734Z,42.58
2022-08-17T22:23:04.597Z,42.65
2022-08-17T22:25:35.897Z,43.78
2022-08-17T22:28:09.059Z,43.35
2022-08-17T22:30:58.103Z,41.45
2022-08-17T22:33:40.300Z,42.40
2022-08-17T22:36:32.544Z,43.22
2022-08-17T22:39:02.064Z,43.10
2022-08-17T22:41:31.350Z,43.97
2022-08-17T22:44:12.859Z,44.88
2022-08-17T22:46:49.544Z,47.38
2022-08-17T22:49:26.633Z,46.25
2022-08-17T22:52:02.020Z,51.58
2022-08-17T22:54:48.048Z,48.08
2022-08-17T22:57:35.050Z,49.17
2022-08-17T23:00:01.800Z,49.65
2022-08-17T23:02:32.706Z,49.53
2022-08-17T23:05:15.795Z,49.83
2022-08-17T23:07:45.459Z,51.53
2022-08-17T23:10:12.903Z,48.97
2022-08-17T23:12:39.842Z,52.25
2022-08-17T23:15:16.363Z,52.72
2022-08-17T23:17:45.274Z,53.63
2022-08-17T23:20:14.945Z,47.70
2022-08-17T23:22:52.067Z,45.53
2022-08-17T23:25:28.910Z,45.60
2022-08-17T23:27:58.306Z,43.67
2022-08-17T23:30:25.594Z,47.15
2022-08-17T23:32:54.195Z,44.50
2022-08-17T23:35:40.187Z,48.25
2022-08-17T23:38:09.606Z,50.15
2022-08-17T23:40:37.658Z,47.72
2022-08-17T23:43:11.463Z,46.00
2022-08-17T23:45:57.385Z,45.63
2022-08-17T23:48:28.597Z,48.15
2022-08-17T23:51:11.049Z,49.40
2022-08-17T23:53:41.945Z,50.50
2022-08-17T23:56:11.325Z,51.35
2022-08-17T23:58:40.168Z,48.13
